Time;durP1;ratioP1;P1;durP2;ratioP2;P2;SDS_P1;SDS_P2;PMS_P1;PMS_P2;Temp;Humidity;BMP_temperature;BMP_pressure;BME280_temperature;BME280_humidity;BME280_pressure;Samples;Min_cycle;Max_cycle;Signal;HPM_P1;HPM_P2
2022/10/30 00:00:55;;;;;;;;;;;;;;;15.25;76.38;101593.91;5104978;27;20420;-72
2022/10/30 00:03:22;;;;;;;;;;;;;;;15.21;76.35;101594.03;5098430;27;19930;-72
2022/10/30 00:05:50;;;;;;;;;;;;;;;15.19;76.46;101593.25;5112876;27;19928;-73
2022/10/30 00:08:20;;;;;;;;;;;;;;;15.16;76.51;101592.50;5094203;27;19924;-72
2022/10/30 00:10:49;;;;;;;;;;;;;;;15.13;76.41;101590.78;5107431;28;19924;-72
2022/10/30 00:13:17;;;;;;;;;;;;;;;15.11;76.66;101586.47;5093593;27;19998;-73
2022/10/30 00:15:52;;;;;;;;;;;;;;;15.07;76.56;101583.91;5092441;28;20147;-72
2022/10/30 00:18:19;;;;;;;;;;;;;;;15.04;76.57;101580.53;5107350;28;19924;-72
2022/10/30 00:20:47;;;;;;;;;;;;;;;15.01;76.65;101592.13;5108540;27;19997;-73
2022/10/30 00:23:15;;;;;;;;;;;;;;;14.98;76.60;101591.38;5092032;28;19933;-73
2022/10/30 00:25:42;;;;;;;;;;;;;;;14.95;76.80;101584.41;5097848;27;19924;-73
2022/10/30 00:28:10;;;;;;;;;;;;;;;14.95;76.87;101581.75;5098029;27;19935;-72
2022/10/30 00:30:37;;;;;;;;;;;;;;;14.93;76.93;101580.03;5096183;28;19978;-72
2022/10/30 00:33:04;;;;;;;;;;;;;;;14.91;76.97;101580.97;5091138;28;19924;-72
2022/10/30 00:35:32;;;;;;;;;;;;;;;14.89;77.08;101585.50;5096693;28;19931;-72
2022/10/30 00:38:00;;;;;;;;;;;;;;;14.89;77.01;101587.25;5106547;27;19928;-72
2022/10/30 00:40:28;;;;;;;;;;;;;;;14.88;77.20;101586.41;5107841;27;19924;-72
2022/10/30 00:42:55;;;;;;;;;;;;;;;14.88;77.12;101581.09;5109720;27;20709;-73
2022/10/30 00:45:23;;;;;;;;;;;;;;;14.89;77.17;101576.66;5109670;27;19932;-72
2022/10/30 00:47:54;;;;;;;;;;;;;;;14.88;77.13;101580.22;5099572;27;19924;-72
2022/10/30 00:50:27;;;;;;;;;;;;;;;14.88;77.15;101590.84;5091930;28;20363;-71
2022/10/30 00:53:00;;;;;;;;;;;;;;;14.87;77.23;101592.63;5091641;28;19972;-73
2022/10/30 00:55:34;;;;;;;;;;;;;;;14.87;77.01;101586.44;5095748;28;20376;-71
2022/10/30 00:58:06;;;;;;;;;;;;;;;14.87;77.29;101589.97;5106366;27;19924;-71
2022/10/30 01:00:37;;;;;;;;;;;;;;;14.85;77.20;101583.84;5105666;28;20429;-71
2022/10/30 01:03:05;;;;;;;;;;;;;;;14.85;77.34;101583.84;5099735;28;19966;-71
2022/10/30 01:05:33;;;;;;;;;;;;;;;14.85;77.31;101589.16;5092205;28;19924;-75
2022/10/30 01:08:00;;;;;;;;;;;;;;;14.84;77.35;101579.47;5096111;28;19931;-74
2022/10/30 01:10:28;;;;;;;;;;;;;;;14.84;77.29;101581.28;5107229;27;19951;-74
2022/10/30 01:12:58;;;;;;;;;;;;;;;14.82;77.18;101576.00;5106948;28;19928;-74
2022/10/30 01:15:34;;;;;;;;;;;;;;;14.82;77.28;101572.50;5108051;28;20369;-74
2022/10/30 01:18:07;;;;;;;;;;;;;;;14.79;77.22;101576.13;5097126;28;20037;-73
2022/10/30 01:20:49;;;;;;;;;;;;;;;14.78;77.22;101579.72;5102340;28;19924;-74
2022/10/30 01:23:41;;;;;;;;;;;;;;;14.78;77.24;101585.00;5106585;28;20426;-73
2022/10/30 01:26:26;;;;;;;;;;;;;;;14.75;77.13;101579.81;5115532;27;19924;-74
2022/10/30 01:29:24;;;;;;;;;;;;;;;14.73;77.02;101581.66;5119201;27;20011;-74
2022/10/30 01:32:22;;;;;;;;;;;;;;;14.69;77.01;101580.03;5116209;27;19967;-75
2022/10/30 01:35:07;;;;;;;;;;;;;;;14.63;77.05;101578.44;5115135;28;19931;-75
2022/10/30 01:37:53;;;;;;;;;;;;;;;14.58;77.05;101583.91;5113042;28;19935;-75
2022/10/30 01:40:22;;;;;;;;;;;;;;;14.54;77.04;101576.13;5109177;28;19931;-75
2022/10/30 01:42:52;;;;;;;;;;;;;;;14.48;77.06;101582.50;5093277;28;19982;-75
2022/10/30 01:46:07;;;;;;;;;;;;;;;14.42;77.09;101580.03;5105921;28;19959;-75
2022/10/30 01:48:46;;;;;;;;;;;;;;;14.35;77.15;101589.13;5107775;28;19929;-73
2022/10/30 01:51:32;;;;;;;;;;;;;;;14.29;77.20;101588.41;5099956;28;20701;-74
2022/10/30 01:54:17;;;;;;;;;;;;;;;14.26;77.22;101595.59;5110057;28;20036;-73
2022/10/30 01:56:59;;;;;;;;;;;;;;;14.21;77.36;101589.59;5093891;28;19989;-74
2022/10/30 01:59:54;;;;;;;;;;;;;;;14.18;77.44;101587.06;5125763;27;20451;-74
2022/10/30 02:02:22;;;;;;;;;;;;;;;14.14;77.48;101581.00;5094127;28;19978;-74
2022/10/30 02:04:50;;;;;;;;;;;;;;;14.10;77.49;101592.59;5121758;27;19931;-74
2022/10/30 02:07:17;;;;;;;;;;;;;;;14.06;77.46;101585.69;5094086;28;20013;-74
2022/10/30 02:09:51;;;;;;;;;;;;;;;14.04;77.50;101584.88;5092590;28;20360;-74
2022/10/30 02:12:19;;;;;;;;;;;;;;;13.98;77.62;101586.81;5092747;28;19978;-75
2022/10/30 02:14:53;;;;;;;;;;;;;;;13.92;77.58;101583.50;5117656;27;20018;-72
2022/10/30 02:17:20;;;;;;;;;;;;;;;13.87;77.65;101582.75;5093117;28;19978;-72
2022/10/30 02:19:48;;;;;;;;;;;;;;;13.83;77.84;101582.00;5091840;28;19931;-72
2022/10/30 02:22:16;;;;;;;;;;;;;;;13.78;77.84;101581.28;5109309;28;20035;-72
2022/10/30 02:24:44;;;;;;;;;;;;;;;13.74;77.89;101593.75;5092256;28;19928;-72
2022/10/30 02:27:13;;;;;;;;;;;;;;;13.71;77.94;101598.28;5126779;27;19924;-73
2022/10/30 02:29:40;;;;;;;;;;;;;;;13.68;78.16;101596.59;5101385;28;20439;-73
2022/10/30 02:32:07;;;;;;;;;;;;;;;13.65;78.13;101591.38;5108479;28;20001;-73
2022/10/30 02:34:35;;;;;;;;;;;;;;;13.64;78.24;101603.78;5120194;27;20023;-73
2022/10/30 02:37:02;;;;;;;;;;;;;;;13.61;78.17;101606.50;5114357;27;20015;-73
2022/10/30 02:39:29;;;;;;;;;;;;;;;13.61;78.35;101610.97;5112799;28;20420;-73
2022/10/30 02:41:56;;;;;;;;;;;;;;;13.57;78.40;101604.91;5113421;27;19931;-72
2022/10/30 02:44:23;;;;;;;;;;;;;;;13.56;78.38;101611.09;5111226;28;19931;-73
2022/10/30 02:46:52;;;;;;;;;;;;;;;13.50;78.42;101616.56;5096732;28;19935;-72
2022/10/30 02:49:21;;;;;;;;;;;;;;;13.45;78.36;101610.56;5093541;28;19931;-73
2022/10/30 02:51:49;;;;;;;;;;;;;;;13.40;78.59;101612.47;5125306;27;20432;-73
2022/10/30 02:54:16;;;;;;;;;;;;;;;13.33;78.77;101604.69;5100912;28;19931;-73
2022/10/30 02:56:43;;;;;;;;;;;;;;;13.27;78.79;101607.53;5113743;27;19928;-72
2022/10/30 02:59:10;;;;;;;;;;;;;;;13.24;78.90;101610.25;5112002;28;20344;-72
2022/10/30 03:01:37;;;;;;;;;;;;;;;13.18;79.04;101608.66;5111187;28;20057;-72
2022/10/30 03:04:05;;;;;;;;;;;;;;;13.15;79.14;101613.16;5092105;28;19925;-72
2022/10/30 03:06:32;;;;;;;;;;;;;;;13.10;79.30;101607.13;5101935;28;20026;-72
2022/10/30 03:08:59;;;;;;;;;;;;;;;13.07;79.51;101600.13;5108426;27;19935;-72
2022/10/30 03:11:26;;;;;;;;;;;;;;;13.02;79.59;101604.72;5096493;28;19935;-73
2022/10/30 03:13:54;;;;;;;;;;;;;;;12.99;79.85;101618.03;5093134;28;19946;-72
2022/10/30 03:16:24;;;;;;;;;;;;;;;12.94;79.88;101614.63;5103545;27;19963;-73
2022/10/30 03:18:51;;;;;;;;;;;;;;;12.88;79.97;101613.00;5108354;28;19936;-72
2022/10/30 03:21:21;;;;;;;;;;;;;;;12.86;80.15;101604.28;5091745;28;20014;-73
2022/10/30 03:23:49;;;;;;;;;;;;;;;12.81;80.21;101612.34;5092840;28;19924;-73
2022/10/30 03:26:17;;;;;;;;;;;;;;;12.76;80.19;101605.44;5092123;28;19931;-73
2022/10/30 03:28:49;;;;;;;;;;;;;;;12.72;80.25;101608.16;5099503;28;19930;-71
2022/10/30 03:31:17;;;;;;;;;;;;;;;12.72;80.47;101613.44;5102050;27;19932;-72
2022/10/30 03:33:46;;;;;;;;;;;;;;;12.68;80.50;101611.78;5091549;28;19924;-71
2022/10/30 03:36:15;;;;;;;;;;;;;;;12.66;80.55;101607.44;5090856;28;19932;-71
2022/10/30 03:38:42;;;;;;;;;;;;;;;12.65;80.53;101598.66;5092725;28;19930;-71
2022/10/30 03:41:13;;;;;;;;;;;;;;;12.65;80.44;101603.94;5091334;28;20007;-71
2022/10/30 03:43:42;;;;;;;;;;;;;;;12.64;80.51;101610.16;5113595;27;20023;-71
2022/10/30 03:46:10;;;;;;;;;;;;;;;12.62;80.43;101604.03;5109869;28;19924;-73
2022/10/30 03:48:37;;;;;;;;;;;;;;;12.63;80.66;101613.69;5111992;28;20020;-73
2022/10/30 03:51:04;;;;;;;;;;;;;;;12.65;80.84;101606.59;5111020;28;19924;-73
2022/10/30 03:53:32;;;;;;;;;;;;;;;12.69;80.83;101610.88;5096086;28;20033;-73
2022/10/30 03:56:02;;;;;;;;;;;;;;;12.71;80.85;101598.47;5111222;28;19974;-72
2022/10/30 03:58:39;;;;;;;;;;;;;;;12.72;80.87;101600.22;5111636;27;19974;-72
2022/10/30 04:01:09;;;;;;;;;;;;;;;12.73;80.90;101601.97;5110656;28;19924;-72
2022/10/30 04:03:41;;;;;;;;;;;;;;;12.72;81.08;101608.16;5107498;28;19976;-73
2022/10/30 04:06:10;;;;;;;;;;;;;;;12.69;81.33;101607.38;5101083;28;19953;-73
2022/10/30 04:08:37;;;;;;;;;;;;;;;12.69;81.56;101610.88;5107108;28;20449;-73
2022/10/30 04:11:04;;;;;;;;;;;;;;;12.70;81.49;101606.47;5108066;28;20022;-71
2022/10/30 04:13:31;;;;;;;;;;;;;;;12.68;81.63;101598.56;5105734;28;19931;-72
2022/10/30 04:15:58;;;;;;;;;;;;;;;12.69;81.71;101615.31;5100376;27;19929;-73
2022/10/30 04:18:26;;;;;;;;;;;;;;;12.65;81.95;101609.25;5108921;28;20528;-73
2022/10/30 04:20:54;;;;;;;;;;;;;;;12.63;82.31;101615.47;5105067;28;20439;-71
2022/10/30 04:23:21;;;;;;;;;;;;;;;12.60;82.29;101618.19;5100322;28;19931;-71
2022/10/30 04:25:49;;;;;;;;;;;;;;;12.56;82.23;101620.06;5100886;28;19928;-71
2022/10/30 04:28:17;;;;;;;;;;;;;;;12.52;82.20;101618.41;5091909;28;19931;-71
2022/10/30 04:30:46;;;;;;;;;;;;;;;12.48;82.32;101617.63;5090925;28;19959;-71
2022/10/30 04:33:15;;;;;;;;;;;;;;;12.45;82.37;101619.47;5098287;28;19924;-71
2022/10/30 04:35:43;;;;;;;;;;;;;;;12.40;82.30;101619.59;5123416;27;19950;-71
2022/10/30 04:38:15;;;;;;;;;;;;;;;12.35;82.38;101625.00;5090476;28;19928;-70
2022/10/30 04:40:44;;;;;;;;;;;;;;;12.32;82.32;101621.53;5107210;27;19928;-71
2022/10/30 04:43:13;;;;;;;;;;;;;;;12.27;82.24;101625.19;5090883;28;19931;-71
2022/10/30 04:45:42;;;;;;;;;;;;;;;12.23;82.46;101626.16;5109543;28;19946;-71
2022/10/30 04:48:14;;;;;;;;;;;;;;;12.21;82.42;101625.31;5115839;27;19928;-73
2022/10/30 04:50:43;;;;;;;;;;;;;;;12.16;82.35;101616.66;5109831;28;19924;-74
2022/10/30 04:53:15;;;;;;;;;;;;;;;12.13;82.45;101616.72;5121423;27;20029;-74
2022/10/30 04:55:45;;;;;;;;;;;;;;;12.11;82.34;101618.50;5128114;27;19931;-74
2022/10/30 04:58:13;;;;;;;;;;;;;;;12.08;82.40;101616.81;5128050;27;19924;-73
2022/10/30 05:00:42;;;;;;;;;;;;;;;12.07;82.45;101617.72;5093754;28;19952;-73
2022/10/30 05:03:18;;;;;;;;;;;;;;;12.05;82.46;101611.63;5097243;28;20418;-72
2022/10/30 05:05:47;;;;;;;;;;;;;;;12.01;82.74;101609.97;5113520;28;19924;-73
2022/10/30 05:08:14;;;;;;;;;;;;;;;11.98;82.97;101606.53;5114266;28;19924;-73
2022/10/30 05:10:42;;;;;;;;;;;;;;;11.93;83.14;101617.19;5113980;28;19967;-74
2022/10/30 05:13:11;;;;;;;;;;;;;;;11.89;83.07;101612.84;5100939;28;19931;-73
2022/10/30 05:15:38;;;;;;;;;;;;;;;11.84;83.17;101612.09;5109642;28;19924;-72
2022/10/30 05:18:05;;;;;;;;;;;;;;;11.80;83.23;101619.25;5110351;27;19924;-73
2022/10/30 05:20:32;;;;;;;;;;;;;;;11.76;83.61;101618.41;5106763;28;20007;-74
2022/10/30 05:23:00;;;;;;;;;;;;;;;11.70;84.10;101608.00;5121079;27;19927;-73
2022/10/30 05:25:27;;;;;;;;;;;;;;;11.62;84.26;101609.94;5101376;27;19924;-72
2022/10/30 05:28:02;;;;;;;;;;;;;;;11.59;84.04;101616.19;5123730;27;19924;-72
2022/10/30 05:30:34;;;;;;;;;;;;;;;11.55;84.12;101617.13;5108126;28;19924;-70
2022/10/30 05:33:06;;;;;;;;;;;;;;;11.50;84.44;101608.44;5100749;28;19928;-71
2022/10/30 05:35:34;;;;;;;;;;;;;;;11.46;84.75;101597.06;5108531;28;20019;-72
2022/10/30 05:38:04;;;;;;;;;;;;;;;11.41;84.81;101595.44;5097128;28;19924;-71
2022/10/30 05:40:33;;;;;;;;;;;;;;;11.34;84.67;101597.38;5105165;27;19924;-70
2022/10/30 05:43:00;;;;;;;;;;;;;;;11.30;84.88;101591.25;5098465;28;19977;-70
2022/10/30 05:45:29;;;;;;;;;;;;;;;11.26;85.09;101592.25;5116528;27;20421;-72
2022/10/30 05:47:59;;;;;;;;;;;;;;;11.23;85.04;101599.34;5108490;28;19964;-72
2022/10/30 05:50:31;;;;;;;;;;;;;;;11.17;85.25;101592.44;5120119;27;20022;-72
2022/10/30 05:53:30;;;;;;;;;;;;;;;11.13;85.13;101599.56;5090834;28;20011;-72
2022/10/30 05:55:59;;;;;;;;;;;;;;;11.09;85.09;101597.88;5102855;28;19935;-72
2022/10/30 05:58:30;;;;;;;;;;;;;;;11.09;85.27;101603.13;5095357;27;19925;-72
2022/10/30 06:01:07;;;;;;;;;;;;;;;11.07;85.32;101604.06;5101210;28;19931;-72
2022/10/30 06:03:40;;;;;;;;;;;;;;;11.03;85.51;101598.00;5097981;28;19975;-72
2022/10/30 06:06:07;;;;;;;;;;;;;;;11.02;85.56;101598.91;5098259;27;20341;-72
2022/10/30 06:08:34;;;;;;;;;;;;;;;10.99;85.65;101593.66;5095825;28;19928;-72
2022/10/30 06:11:13;;;;;;;;;;;;;;;10.97;nan;101603.38;5095080;28;20404;-72
2022/10/30 06:13:43;;;;;;;;;;;;;;;10.93;85.64;101605.22;5120296;27;19924;-72
2022/10/30 06:16:12;;;;;;;;;;;;;;;10.90;85.58;101612.31;5109567;27;19924;-71
2022/10/30 06:18:58;;;;;;;;;;;;;;;10.87;85.54;101610.63;5094624;28;20426;-71
2022/10/30 06:21:27;;;;;;;;;;;;;;;10.85;nan;101612.41;5108318;27;19924;-71
2022/10/30 06:24:19;;;;;;;;;;;;;;;10.81;85.91;101606.31;5109730;27;19924;-72
2022/10/30 06:27:09;;;;;;;;;;;;;;;10.78;85.85;101609.00;5100885;27;20382;-71
2022/10/30 06:29:36;;;;;;;;;;;;;;;10.78;85.67;101623.97;5126053;27;19928;-71
2022/10/30 06:32:03;;;;;;;;;;;;;;;10.76;85.70;101634.53;5111344;27;20014;-70
2022/10/30 06:34:33;;;;;;;;;;;;;;;10.76;85.50;101631.06;5110926;27;19931;-71
2022/10/30 06:37:00;;;;;;;;;;;;;;;10.76;85.71;101631.06;5119703;27;20023;-71
2022/10/30 06:39:27;;;;;;;;;;;;;;;10.76;85.76;101625.78;5118964;27;19923;-71
2022/10/30 06:42:13;;;;;;;;;;;;;;;10.74;85.93;101624.94;5101043;28;19928;-72
2022/10/30 06:44:51;;;;;;;;;;;;;;;10.71;86.20;101620.59;5107947;27;19924;-71
2022/10/30 06:47:19;;;;;;;;;;;;;;;10.70;86.61;101617.06;5094866;28;19924;-70
2022/10/30 06:49:47;;;;;;;;;;;;;;;10.68;86.50;101624.13;5093155;28;20360;-71
2022/10/30 06:52:15;;;;;;;;;;;;;;;10.68;86.73;101625.91;5103751;28;19924;-71
2022/10/30 06:54:42;;;;;;;;;;;;;;;10.69;86.94;101635.56;5120918;27;19928;-70
2022/10/30 06:57:28;;;;;;;;;;;;;;;10.69;87.38;101632.94;5104508;28;19924;-70
2022/10/30 07:00:08;;;;;;;;;;;;;;;10.69;87.54;101625.00;5105121;28;20009;-70
2022/10/30 07:03:00;;;;;;;;;;;;;;;10.70;87.55;101611.78;5096119;28;19924;-72
2022/10/30 07:05:29;;;;;;;;;;;;;;;10.74;87.60;101612.59;5096820;28;19928;-70
2022/10/30 07:07:57;;;;;;;;;;;;;;;10.74;87.76;101607.31;5094313;28;19928;-70
2022/10/30 07:10:30;;;;;;;;;;;;;;;10.74;88.07;101604.69;5104821;27;19924;-71
2022/10/30 07:13:17;;;;;;;;;;;;;;;10.83;88.64;101608.94;5081818;28;20017;-69
2022/10/30 07:15:52;;;;;;;;;;;;;;;11.01;89.10;101610.34;5107814;27;19931;-70
2022/10/30 07:18:22;;;;;;;;;;;;;;;11.09;88.66;101616.34;5109723;27;19928;-70
2022/10/30 07:20:57;;;;;;;;;;;;;;;11.16;88.40;101611.81;5095330;28;20022;-70
2022/10/30 07:23:25;;;;;;;;;;;;;;;11.24;88.57;101604.59;5099777;28;19924;-69
2022/10/30 07:25:59;;;;;;;;;;;;;;;11.33;88.45;101603.53;5098738;28;19928;-69
2022/10/30 07:28:36;;;;;;;;;;;;;;;11.41;88.20;101600.72;5101471;28;20337;-70
2022/10/30 07:31:17;;;;;;;;;;;;;;;11.47;87.91;101606.72;5104918;28;19924;-70
2022/10/30 07:34:07;;;;;;;;;;;;;;;11.60;88.13;101612.59;5112607;27;19924;-70
2022/10/30 07:36:47;;;;;;;;;;;;;;;11.76;88.50;101607.84;5108805;28;19946;-70
2022/10/30 07:39:40;;;;;;;;;;;;;;;11.94;88.67;101610.97;5107902;28;19947;-71
2022/10/30 07:42:20;;;;;;;;;;;;;;;12.08;88.51;101608.91;5097622;28;19967;-70
2022/10/30 07:45:06;;;;;;;;;;;;;;;12.20;88.04;101610.38;5106245;28;19931;-70
2022/10/30 07:47:40;;;;;;;;;;;;;;;12.29;87.70;101606.63;5094674;27;19924;-70
2022/10/30 07:50:22;;;;;;;;;;;;;;;12.36;87.22;101602.06;5111608;27;20649;-70
2022/10/30 07:52:49;;;;;;;;;;;;;;;12.38;87.38;101609.03;5109735;27;19933;-70
2022/10/30 07:55:22;;;;;;;;;;;;;;;12.45;87.08;101599.16;5099575;27;20058;-71
2022/10/30 07:57:50;;;;;;;;;;;;;;;12.54;86.94;101606.88;5098710;27;19924;-70
2022/10/30 08:00:36;;;;;;;;;;;;;;;12.60;86.86;101594.41;5095364;27;20757;-70
2022/10/30 08:03:13;;;;;;;;;;;;;;;12.64;86.88;101594.28;5118049;27;19928;-70
2022/10/30 08:05:52;;;;;;;;;;;;;;;12.76;86.73;101595.72;5109896;27;19928;-70
2022/10/30 08:08:25;;;;;;;;;;;;;;;12.88;86.74;101598.03;5108319;27;20292;-70
2022/10/30 08:11:04;;;;;;;;;;;;;;;12.94;86.52;101599.63;5098576;27;20006;-70
2022/10/30 08:13:32;;;;;;;;;;;;;;;12.98;86.38;101595.97;5102910;27;20947;-70
2022/10/30 08:16:00;;;;;;;;;;;;;;;13.02;86.32;101592.34;5104913;27;20756;-70
2022/10/30 08:18:27;;;;;;;;;;;;;;;13.11;86.35;101591.22;5102164;27;19975;-70
2022/10/30 08:20:55;;;;;;;;;;;;;;;13.23;86.35;101595.28;5113435;27;19923;-70
2022/10/30 08:23:25;;;;;;;;;;;;;;;13.31;86.10;101581.81;5103201;27;20593;-70
2022/10/30 08:25:59;;;;;;;;;;;;;;;13.34;85.86;101590.53;5124267;27;19923;-70
2022/10/30 08:28:27;;;;;;;;;;;;;;;13.41;85.74;101595.66;5113990;27;20015;-70
2022/10/30 08:31:01;;;;;;;;;;;;;;;13.45;85.68;101597.31;5097994;28;19931;-71
2022/10/30 08:33:48;;;;;;;;;;;;;;;13.54;85.62;101602.31;5091965;28;20030;-70
2022/10/30 08:36:33;;;;;;;;;;;;;;;13.63;85.39;101602.03;5094359;28;20050;-70
2022/10/30 08:39:02;;;;;;;;;;;;;;;13.73;85.21;101601.75;5099973;28;20368;-70
2022/10/30 08:41:41;;;;;;;;;;;;;;;13.81;85.21;101597.06;5091377;28;20506;-71
2022/10/30 08:44:09;;;;;;;;;;;;;;;13.88;85.08;101603.03;5106410;27;20456;-71
2022/10/30 08:47:00;;;;;;;;;;;;;;;13.98;85.02;101593.88;5098512;28;19928;-70
2022/10/30 08:49:27;;;;;;;;;;;;;;;14.05;84.94;101584.81;5105913;28;19924;-70
2022/10/30 08:51:57;;;;;;;;;;;;;;;14.13;84.76;101592.50;5106387;27;19924;-70
2022/10/30 08:54:25;;;;;;;;;;;;;;;14.19;84.58;101588.78;5100752;28;19934;-71
2022/10/30 08:56:53;;;;;;;;;;;;;;;14.26;84.44;101582.34;5104267;27;19928;-71
2022/10/30 08:59:20;;;;;;;;;;;;;;;14.35;84.42;101579.38;5096614;28;20660;-68
2022/10/30 09:01:50;;;;;;;;;;;;;;;14.43;84.31;101569.41;5096462;28;19971;-68
2022/10/30 09:04:18;;;;;;;;;;;;;;;14.51;84.28;101576.22;5095880;28;20436;-69
2022/10/30 09:07:08;;;;;;;;;;;;;;;14.62;84.10;101578.47;5107113;27;20015;-67
2022/10/30 09:09:57;;;;;;;;;;;;;;;14.75;83.93;101579.81;5097552;28;20846;-67
2022/10/30 09:12:27;;;;;;;;;;;;;;;14.86;83.82;101580.28;5105424;28;20402;-67
2022/10/30 09:14:54;;;;;;;;;;;;;;;14.99;83.63;101583.34;5093914;28;20015;-67
2022/10/30 09:17:21;;;;;;;;;;;;;;;15.12;83.47;101583.75;5104285;27;20055;-68
2022/10/30 09:19:51;;;;;;;;;;;;;;;15.25;83.30;101581.53;5096126;28;19925;-68
2022/10/30 09:22:29;;;;;;;;;;;;;;;15.37;83.08;101575.72;5108587;27;20368;-67
2022/10/30 09:24:56;;;;;;;;;;;;;;;15.46;82.81;101574.50;5103510;28;19972;-67
2022/10/30 09:27:58;;;;;;;;;;;;;;;15.61;82.60;101588.13;5075356;28;20371;-67
2022/10/30 09:30:30;;;;;;;;;;;;;;;15.72;82.50;101593.84;5098238;28;19931;-67
2022/10/30 09:33:03;;;;;;;;;;;;;;;15.81;82.49;101593.50;5093048;28;19924;-67
2022/10/30 09:35:54;;;;;;;;;;;;;;;15.97;82.36;101590.22;5100880;28;20396;-67
2022/10/30 09:38:21;;;;;;;;;;;;;;;16.08;82.07;101584.47;5118303;27;19962;-67
2022/10/30 09:41:25;;;;;;;;;;;;;;;16.12;81.49;101586.94;5099881;28;20394;-67
2022/10/30 09:44:00;;;;;;;;;;;;;;;16.23;81.27;101582.94;5095547;28;20535;-67
2022/10/30 09:46:46;;;;;;;;;;;;;;;16.36;80.89;101575.34;5100901;27;20041;-67
2022/10/30 09:49:33;;;;;;;;;;;;;;;16.52;80.60;101571.06;5101125;28;19928;-67
2022/10/30 09:52:28;;;;;;;;;;;;;;;16.67;80.54;101569.53;5113382;28;19924;-66
2022/10/30 09:55:19;;;;;;;;;;;;;;;16.83;80.37;101571.50;5102291;28;19924;-67
2022/10/30 09:57:59;;;;;;;;;;;;;;;17.01;80.05;101577.81;5109640;28;20354;-67
2022/10/30 10:00:52;;;;;;;;;;;;;;;17.18;78.92;101574.38;5102777;28;20026;-67
2022/10/30 10:03:43;;;;;;;;;;;;;;;17.37;78.12;101569.06;5110434;27;19924;-66
2022/10/30 10:06:45;;;;;;;;;;;;;;;17.54;77.58;101573.59;5101983;28;19955;-67
2022/10/30 10:09:23;;;;;;;;;;;;;;;17.69;77.46;101575.50;5093633;28;19925;-67
2022/10/30 10:12:46;;;;;;;;;;;;;;;17.82;77.11;101580.22;5112406;27;20607;-70
2022/10/30 10:15:39;;;;;;;;;;;;;;;17.97;77.03;101584.81;5107400;27;19982;-71
2022/10/30 10:18:18;;;;;;;;;;;;;;;18.08;77.19;101583.44;5095770;28;20388;-70
2022/10/30 10:20:50;;;;;;;;;;;;;;;18.22;77.24;101582.72;5099220;28;19970;-71
2022/10/30 10:23:50;;;;;;;;;;;;;;;18.36;76.90;101580.22;5101843;28;19974;-71
2022/10/30 10:26:41;;;;;;;;;;;;;;;18.52;76.78;101596.31;5100612;28;19935;-70
2022/10/30 10:29:39;;;;;;;;;;;;;;;18.67;75.79;101591.13;5099193;28;19925;-71
2022/10/30 10:32:44;;;;;;;;;;;;;;;18.76;74.91;101593.31;5093550;27;19925;-71
2022/10/30 10:35:49;;;;;;;;;;;;;;;18.77;75.26;101590.56;5098037;28;19924;-71
2022/10/30 10:38:54;;;;;;;;;;;;;;;18.87;75.01;101588.22;5104651;28;19967;-72
2022/10/30 10:41:49;;;;;;;;;;;;;;;19.01;74.73;101586.66;5100554;27;20314;-71
2022/10/30 10:44:37;;;;;;;;;;;;;;;19.19;74.14;101588.34;5096138;27;19924;-71
2022/10/30 10:47:31;;;;;;;;;;;;;;;19.36;73.48;101583.88;5105588;28;19924;-71
2022/10/30 10:50:22;;;;;;;;;;;;;;;19.50;73.08;101573.25;5122523;27;19947;-70
2022/10/30 10:52:52;;;;;;;;;;;;;;;19.58;73.04;101578.19;5100007;28;19928;-70
2022/10/30 10:55:27;;;;;;;;;;;;;;;19.63;72.98;101576.13;5096391;28;19924;-71
2022/10/30 10:58:03;;;;;;;;;;;;;;;19.73;72.55;101583.63;5111491;27;20038;-72
2022/10/30 11:00:31;;;;;;;;;;;;;;;19.83;72.46;101576.78;5108002;28;19931;-71
2022/10/30 11:03:08;;;;;;;;;;;;;;;19.92;72.45;101573.59;5105498;27;19924;-70
2022/10/30 11:05:50;;;;;;;;;;;;;;;20.05;72.11;101578.22;5101073;28;20321;-70
2022/10/30 11:08:28;;;;;;;;;;;;;;;20.18;71.96;101573.88;5111549;28;19926;-70
2022/10/30 11:11:03;;;;;;;;;;;;;;;20.25;69.63;101569.88;5107424;28;19924;-70
2022/10/30 11:13:34;;;;;;;;;;;;;;;20.19;70.56;101567.56;5102464;28;19985;-70
2022/10/30 11:16:25;;;;;;;;;;;;;;;20.15;70.62;101561.53;5111967;28;19928;-70
2022/10/30 11:19:10;;;;;;;;;;;;;;;19.98;70.46;101559.84;5095547;27;20608;-71
2022/10/30 11:21:44;;;;;;;;;;;;;;;19.86;71.16;101555.22;5108033;28;19920;-71
2022/10/30 11:24:31;;;;;;;;;;;;;;;19.77;71.23;101561.06;5109533;28;19928;-70
2022/10/30 11:27:18;;;;;;;;;;;;;;;19.71;70.24;101551.59;5099740;28;20660;-71
2022/10/30 11:29:57;;;;;;;;;;;;;;;19.70;70.46;101539.16;5106410;28;20724;-70
2022/10/30 11:32:29;;;;;;;;;;;;;;;19.72;70.21;101547.97;5093678;28;19928;-70
2022/10/30 11:35:11;;;;;;;;;;;;;;;19.74;70.37;101546.06;5111017;28;22339;-71
2022/10/30 11:37:40;;;;;;;;;;;;;;;19.88;70.42;101547.13;5105624;27;19924;-71
2022/10/30 11:40:10;;;;;;;;;;;;;;;20.04;69.14;101539.06;5101657;28;19935;-70
2022/10/30 11:42:45;;;;;;;;;;;;;;;20.06;69.79;101539.78;5107204;28;19924;-72
2022/10/30 11:45:23;;;;;;;;;;;;;;;20.15;69.92;101545.47;5111964;28;19924;-72
2022/10/30 11:47:52;;;;;;;;;;;;;;;20.36;68.86;101534.44;5096122;28;20395;-70
2022/10/30 11:50:23;;;;;;;;;;;;;;;20.49;68.33;101537.22;5109232;27;19973;-71
2022/10/30 11:52:55;;;;;;;;;;;;;;;20.57;68.40;101534.06;5111360;27;19977;-71
2022/10/30 11:55:28;;;;;;;;;;;;;;;20.67;68.60;101534.34;5097351;27;20397;-70
2022/10/30 11:57:57;;;;;;;;;;;;;;;20.71;68.49;101533.22;5107341;27;20380;-70
2022/10/30 12:00:27;;;;;;;;;;;;;;;20.72;68.33;101537.63;5116700;27;19971;-70
2022/10/30 12:02:56;;;;;;;;;;;;;;;20.68;68.66;101544.09;5100986;27;19981;-71
2022/10/30 12:05:24;;;;;;;;;;;;;;;20.69;68.16;101536.00;5106282;27;19930;-70
2022/10/30 12:08:11;;;;;;;;;;;;;;;20.73;67.84;101525.94;5106672;27;19927;-70
2022/10/30 12:10:53;;;;;;;;;;;;;;;20.82;67.99;101537.91;5103198;27;19997;-71
2022/10/30 12:13:22;;;;;;;;;;;;;;;20.90;67.10;101525.78;5107550;27;20472;-70
2022/10/30 12:16:02;;;;;;;;;;;;;;;20.92;66.17;101531.91;5103147;27;19978;-70
2022/10/30 12:18:30;;;;;;;;;;;;;;;20.93;65.54;101524.69;5116218;27;19931;-70
2022/10/30 12:20:58;;;;;;;;;;;;;;;20.92;66.62;101520.31;5112113;27;19931;-70
2022/10/30 12:23:27;;;;;;;;;;;;;;;20.92;66.13;101510.47;5112604;27;19924;-70
2022/10/30 12:25:58;;;;;;;;;;;;;;;20.92;66.17;101518.50;5109883;27;19928;-71
2022/10/30 12:28:29;;;;;;;;;;;;;;;20.94;66.14;101513.91;5116571;27;19923;-70
2022/10/30 12:31:09;;;;;;;;;;;;;;;20.96;66.28;101521.84;5112964;27;19960;-72
2022/10/30 12:33:49;;;;;;;;;;;;;;;20.98;66.82;101519.06;5111476;27;19950;-72
2022/10/30 12:36:21;;;;;;;;;;;;;;;21.09;67.07;101521.91;5107840;27;19934;-72
2022/10/30 12:38:58;;;;;;;;;;;;;;;21.18;66.74;101520.47;5117749;27;19986;-71
2022/10/30 12:41:30;;;;;;;;;;;;;;;21.23;66.23;101512.97;5102732;28;19981;-72
2022/10/30 12:44:02;;;;;;;;;;;;;;;21.22;65.73;101511.25;5128965;27;19957;-72
2022/10/30 12:47:00;;;;;;;;;;;;;;;21.18;65.48;101507.06;5112212;27;19924;-72
2022/10/30 12:49:46;;;;;;;;;;;;;;;21.07;65.51;101502.38;5102677;27;20419;-72
2022/10/30 12:52:25;;;;;;;;;;;;;;;21.00;66.09;101501.94;5107894;27;19954;-72
2022/10/30 12:55:04;;;;;;;;;;;;;;;20.94;66.88;101500.50;5119795;27;20374;-72
2022/10/30 12:57:45;;;;;;;;;;;;;;;20.90;67.31;101503.47;5101407;27;19924;-72
2022/10/30 13:00:15;;;;;;;;;;;;;;;20.84;66.88;101507.41;5108749;27;19932;-73
2022/10/30 13:02:54;;;;;;;;;;;;;;;20.77;66.86;101506.94;5107162;27;19928;-70
2022/10/30 13:05:42;;;;;;;;;;;;;;;20.73;67.34;101502.69;5105916;27;19924;-71
2022/10/30 13:08:19;;;;;;;;;;;;;;;20.74;67.33;101499.09;5110774;27;19923;-70
2022/10/30 13:10:55;;;;;;;;;;;;;;;20.74;67.76;101501.75;5106460;27;19924;-70
2022/10/30 13:13:27;;;;;;;;;;;;;;;20.78;67.49;101492.59;5105070;27;19966;-71
2022/10/30 13:16:01;;;;;;;;;;;;;;;20.81;67.40;101494.19;5115136;28;20385;-71